Time;durP1;ratioP1;P1;durP2;ratioP2;P2;SDS_P1;SDS_P2;PMS_P1;PMS_P2;Temp;Humidity;BMP_temperature;BMP_pressure;BME280_temperature;BME280_humidity;BME280_pressure;Samples;Min_cycle;Max_cycle;Signal;HPM_P1;HPM_P2
2021/06/01 00:01:37;;;;;;;5.68;2.95;;;;;;;;;;4986125;28;20054;-49
2021/06/01 00:04:05;;;;;;;4.13;3.40;;;;;;;;;;5000689;28;20043;-49
2021/06/01 00:06:33;;;;;;;6.10;3.55;;;;;;;;;;4983567;28;20074;-48
2021/06/01 00:09:00;;;;;;;4.38;3.30;;;;;;;;;;4983304;28;20046;-47
2021/06/01 00:11:27;;;;;;;4.88;3.22;;;;;;;;;;4993465;28;20185;-42
2021/06/01 00:13:54;;;;;;;6.88;3.47;;;;;;;;;;4992328;28;20054;-43
2021/06/01 00:16:20;;;;;;;4.43;3.20;;;;;;;;;;4985991;28;20047;-45
2021/06/01 00:18:48;;;;;;;3.95;2.80;;;;;;;;;;4986365;28;20180;-42
2021/06/01 00:21:14;;;;;;;4.43;3.10;;;;;;;;;;4991815;28;20393;-46
2021/06/01 00:23:42;;;;;;;4.47;3.10;;;;;;;;;;4991375;28;20056;-45
2021/06/01 00:26:10;;;;;;;7.75;4.35;;;;;;;;;;4980850;28;20419;-46
2021/06/01 00:28:38;;;;;;;5.90;3.47;;;;;;;;;;4989554;28;20076;-46
2021/06/01 00:31:06;;;;;;;4.13;2.85;;;;;;;;;;4997660;28;20065;-47
2021/06/01 00:33:32;;;;;;;8.52;3.65;;;;;;;;;;4996532;28;20093;-47
2021/06/01 00:35:59;;;;;;;6.40;3.25;;;;;;;;;;4996468;28;20364;-45
2021/06/01 00:38:26;;;;;;;4.65;3.47;;;;;;;;;;4988799;28;20129;-48
2021/06/01 00:40:53;;;;;;;4.10;3.38;;;;;;;;;;4997102;28;20124;-46
2021/06/01 00:43:20;;;;;;;5.53;3.47;;;;;;;;;;4997372;28;20451;-48
2021/06/01 00:45:47;;;;;;;6.35;3.17;;;;;;;;;;4996392;28;20108;-51
2021/06/01 00:48:14;;;;;;;4.70;3.30;;;;;;;;;;4992888;28;20077;-48
2021/06/01 00:50:40;;;;;;;5.88;2.95;;;;;;;;;;4996302;28;20499;-49
2021/06/01 00:53:08;;;;;;;7.32;3.80;;;;;;;;;;4993365;28;20062;-49
2021/06/01 00:55:35;;;;;;;4.45;3.50;;;;;;;;;;4991539;28;20084;-46
2021/06/01 00:58:03;;;;;;;4.40;3.10;;;;;;;;;;4987726;28;20539;-47
2021/06/01 01:03:12;;;;;;;5.38;3.45;;;;;;;;;;4987990;28;20528;-48
2021/06/01 01:05:40;;;;;;;5.50;3.60;;;;;;;;;;4994828;28;20050;-47
2021/06/01 01:11:14;;;;;;;6.18;3.53;;;;;;;;;;4988038;28;20046;-44
2021/06/01 01:14:02;;;;;;;7.95;3.70;;;;;;;;;;4987324;28;20177;-43
2021/06/01 01:16:30;;;;;;;4.05;3.20;;;;;;;;;;4977039;28;20093;-45
2021/06/01 01:19:10;;;;;;;5.22;3.70;;;;;;;;;;4991253;28;20050;-46
2021/06/01 01:21:40;;;;;;;4.55;3.60;;;;;;;;;;4980278;28;20125;-44
2021/06/01 01:24:25;;;;;;;5.82;3.78;;;;;;;;;;4991155;28;20061;-47
2021/06/01 01:27:10;;;;;;;3.92;3.38;;;;;;;;;;5001419;28;20468;-42
2021/06/01 01:29:41;;;;;;;6.35;3.70;;;;;;;;;;4978816;28;20417;-48
2021/06/01 01:32:11;;;;;;;5.47;3.72;;;;;;;;;;4985675;28;20058;-52
2021/06/01 01:34:39;;;;;;;5.55;4.00;;;;;;;;;;4989597;28;20056;-47
2021/06/01 01:37:06;;;;;;;5.95;3.90;;;;;;;;;;4990536;28;20074;-43
2021/06/01 01:39:38;;;;;;;6.82;3.83;;;;;;;;;;4990834;28;20543;-44
2021/06/01 01:42:06;;;;;;;6.70;3.87;;;;;;;;;;4990888;28;20423;-49
2021/06/01 01:44:37;;;;;;;6.57;3.88;;;;;;;;;;4985366;28;20042;-44
2021/06/01 01:48:56;;;;;;;5.88;3.85;;;;;;;;;;4990543;28;20142;-42
2021/06/01 01:49:51;;;;;;;5.75;4.13;;;;;;;;;;4994050;28;20046;-44
2021/06/01 01:52:18;;;;;;;4.72;3.88;;;;;;;;;;4993848;28;20451;-46
2021/06/01 01:54:45;;;;;;;4.95;3.85;;;;;;;;;;4990192;28;20119;-46
2021/06/01 01:57:14;;;;;;;4.75;3.63;;;;;;;;;;4983461;28;20043;-43
2021/06/01 01:59:40;;;;;;;6.80;4.18;;;;;;;;;;4991335;28;20152;-43
2021/06/01 02:02:09;;;;;;;7.30;3.88;;;;;;;;;;4993090;28;20074;-43
2021/06/01 02:04:36;;;;;;;7.13;4.70;;;;;;;;;;4992061;28;20424;-41
2021/06/01 02:07:04;;;;;;;8.32;4.45;;;;;;;;;;4987722;28;20042;-41
2021/06/01 02:09:32;;;;;;;8.32;4.93;;;;;;;;;;4994096;28;20066;-41
2021/06/01 02:11:58;;;;;;;8.13;4.18;;;;;;;;;;4995347;28;20062;-44
2021/06/01 02:14:26;;;;;;;5.85;3.88;;;;;;;;;;4997589;28;20049;-41
2021/06/01 02:16:53;;;;;;;6.68;4.88;;;;;;;;;;4990826;28;20599;-41
2021/06/01 02:19:20;;;;;;;9.88;4.15;;;;;;;;;;4995337;28;20463;-44
2021/06/01 02:24:20;;;;;;;;;;;;;;;;;;4994390;28;20086;-42
2021/06/01 02:26:47;;;;;;;5.22;4.00;;;;;;;;;;4987350;28;19953;-46
2021/06/01 02:29:21;;;;;;;7.13;4.40;;;;;;;;;;4986436;28;20051;-42
2021/06/01 02:31:49;;;;;;;5.63;4.10;;;;;;;;;;4990658;28;20054;-43
2021/06/01 02:34:17;;;;;;;5.65;4.20;;;;;;;;;;4996675;28;20050;-44
2021/06/01 02:36:44;;;;;;;5.43;3.78;;;;;;;;;;4986995;28;20059;-44
2021/06/01 02:39:12;;;;;;;5.03;3.92;;;;;;;;;;4990378;28;20073;-42
2021/06/01 02:41:38;;;;;;;5.88;4.40;;;;;;;;;;4988892;28;20077;-43
2021/06/01 02:44:05;;;;;;;5.50;4.22;;;;;;;;;;4990636;28;20109;-43
2021/06/01 02:46:32;;;;;;;4.95;3.90;;;;;;;;;;4988607;28;20070;-47
2021/06/01 02:48:59;;;;;;;6.45;4.15;;;;;;;;;;4989991;28;20129;-43
2021/06/01 02:51:27;;;;;;;6.13;4.43;;;;;;;;;;4991897;28;20058;-42
2021/06/01 02:53:54;;;;;;;8.02;4.40;;;;;;;;;;4993622;28;20054;-42
2021/06/01 02:56:21;;;;;;;10.13;4.63;;;;;;;;;;4984335;28;20802;-47
2021/06/01 02:58:49;;;;;;;10.15;4.97;;;;;;;;;;4999782;28;20100;-44
2021/06/01 03:01:16;;;;;;;6.82;4.70;;;;;;;;;;4984572;28;20055;-44
2021/06/01 03:03:44;;;;;;;6.38;4.63;;;;;;;;;;4983880;28;20110;-42
2021/06/01 03:06:11;;;;;;;11.88;4.45;;;;;;;;;;4991059;28;20046;-45
2021/06/01 03:08:39;;;;;;;7.38;4.55;;;;;;;;;;4992245;28;20077;-42
2021/06/01 03:11:06;;;;;;;7.45;5.15;;;;;;;;;;4994094;28;20066;-47
2021/06/01 03:13:32;;;;;;;8.90;4.78;;;;;;;;;;4993986;28;20189;-48
2021/06/01 03:15:59;;;;;;;5.68;4.60;;;;;;;;;;4993379;28;20499;-44
2021/06/01 03:18:27;;;;;;;8.18;4.50;;;;;;;;;;4978092;28;20046;-44
2021/06/01 03:20:54;;;;;;;5.50;4.35;;;;;;;;;;4982234;28;20066;-47
2021/06/01 03:23:21;;;;;;;5.50;4.30;;;;;;;;;;4993083;28;20046;-44
2021/06/01 03:25:48;;;;;;;6.07;4.68;;;;;;;;;;4991494;28;20149;-46
2021/06/01 03:28:15;;;;;;;7.80;4.70;;;;;;;;;;4997877;28;20093;-42
2021/06/01 03:30:42;;;;;;;6.28;4.95;;;;;;;;;;4975627;28;20050;-42
2021/06/01 03:33:09;;;;;;;8.88;5.28;;;;;;;;;;4993042;28;20057;-44
2021/06/01 03:35:36;;;;;;;19.73;5.47;;;;;;;;;;4993543;28;20073;-44
2021/06/01 03:38:03;;;;;;;13.65;5.45;;;;;;;;;;4992093;28;20050;-42
2021/06/01 03:40:30;;;;;;;10.75;5.55;;;;;;;;;;4994207;28;20050;-42
2021/06/01 03:42:57;;;;;;;8.23;4.88;;;;;;;;;;4992563;28;20076;-48
2021/06/01 03:45:26;;;;;;;7.57;4.70;;;;;;;;;;4991372;28;20057;-43
2021/06/01 03:47:53;;;;;;;7.38;4.97;;;;;;;;;;4992736;28;20109;-44
2021/06/01 03:50:20;;;;;;;8.18;4.90;;;;;;;;;;4992873;28;20098;-44
2021/06/01 03:52:47;;;;;;;8.55;4.65;;;;;;;;;;4984795;28;20042;-49
2021/06/01 03:55:14;;;;;;;8.73;5.07;;;;;;;;;;4989145;28;20077;-43
2021/06/01 03:57:41;;;;;;;8.90;5.35;;;;;;;;;;4984372;28;20467;-47
2021/06/01 04:00:09;;;;;;;9.07;4.97;;;;;;;;;;4976206;28;20467;-45
2021/06/01 04:02:40;;;;;;;8.35;5.10;;;;;;;;;;4982658;28;20054;-51
2021/06/01 04:05:07;;;;;;;7.63;5.82;;;;;;;;;;4991770;28;20121;-42
2021/06/01 04:07:34;;;;;;;8.68;5.35;;;;;;;;;;4992145;28;20099;-43
2021/06/01 04:10:01;;;;;;;7.43;5.43;;;;;;;;;;4986375;28;20188;-44
2021/06/01 04:12:27;;;;;;;7.10;5.10;;;;;;;;;;4991967;28;20054;-47
2021/06/01 04:14:54;;;;;;;7.95;5.20;;;;;;;;;;4993449;28;20428;-44
2021/06/01 04:17:21;;;;;;;11.35;5.50;;;;;;;;;;4987182;28;20543;-46
2021/06/01 04:19:48;;;;;;;11.70;5.40;;;;;;;;;;4985998;28;20081;-45
2021/06/01 04:22:15;;;;;;;6.40;5.00;;;;;;;;;;4991164;28;20069;-43
2021/06/01 04:24:42;;;;;;;8.95;5.05;;;;;;;;;;4992540;28;20046;-47
2021/06/01 04:27:09;;;;;;;7.18;5.03;;;;;;;;;;4987449;28;20081;-45
2021/06/01 04:29:36;;;;;;;7.40;5.10;;;;;;;;;;4980071;28;20047;-43
2021/06/01 04:32:03;;;;;;;6.10;4.68;;;;;;;;;;4988931;28;20054;-44
2021/06/01 04:34:30;;;;;;;8.65;5.10;;;;;;;;;;4991773;28;20061;-46
2021/06/01 04:36:56;;;;;;;10.85;5.28;;;;;;;;;;4991477;28;20070;-49
2021/06/01 04:39:23;;;;;;;7.20;4.72;;;;;;;;;;4981346;28;20055;-49
2021/06/01 04:41:50;;;;;;;7.30;4.82;;;;;;;;;;4992815;28;20050;-48
2021/06/01 04:44:17;;;;;;;8.38;4.75;;;;;;;;;;4997331;28;20073;-51
2021/06/01 04:46:44;;;;;;;7.10;4.30;;;;;;;;;;4986698;28;20043;-48
2021/06/01 04:49:10;;;;;;;6.32;4.78;;;;;;;;;;4994190;28;20069;-52
2021/06/01 04:51:37;;;;;;;7.70;4.95;;;;;;;;;;5009937;28;20047;-49
2021/06/01 04:54:04;;;;;;;6.95;4.85;;;;;;;;;;5001848;28;20480;-49
2021/06/01 04:56:31;;;;;;;6.13;4.68;;;;;;;;;;4990778;28;20089;-47
2021/06/01 04:59:01;;;;;;;7.03;4.90;;;;;;;;;;4992321;28;20054;-50
2021/06/01 05:01:29;;;;;;;9.10;4.63;;;;;;;;;;4987887;28;20138;-48
2021/06/01 05:03:56;;;;;;;5.65;4.80;;;;;;;;;;4998181;28;20046;-49
2021/06/01 05:06:23;;;;;;;6.40;4.45;;;;;;;;;;4989319;28;20038;-48
2021/06/01 05:08:50;;;;;;;5.25;4.15;;;;;;;;;;4977507;28;20077;-49
2021/06/01 05:11:17;;;;;;;7.13;4.05;;;;;;;;;;4990734;28;20126;-48
2021/06/01 05:13:44;;;;;;;6.20;4.03;;;;;;;;;;4992432;28;20113;-46
2021/06/01 05:16:11;;;;;;;6.25;4.55;;;;;;;;;;4986717;28;20061;-43
2021/06/01 05:18:38;;;;;;;5.70;4.25;;;;;;;;;;4990292;28;20054;-45
2021/06/01 05:21:05;;;;;;;5.60;4.15;;;;;;;;;;4991217;28;20419;-47
2021/06/01 05:23:33;;;;;;;5.95;4.03;;;;;;;;;;4990475;28;20101;-46
2021/06/01 05:26:00;;;;;;;7.97;4.15;;;;;;;;;;4980103;28;20130;-47
2021/06/01 05:28:27;;;;;;;5.40;4.20;;;;;;;;;;4978725;28;20161;-46
2021/06/01 05:34:05;;;;;;;8.77;4.05;;;;;;;;;;4992618;28;20058;-44
2021/06/01 05:36:32;;;;;;;6.10;3.95;;;;;;;;;;4990462;28;20117;-45
2021/06/01 05:38:58;;;;;;;7.53;3.70;;;;;;;;;;4988322;28;20177;-43
2021/06/01 05:41:25;;;;;;;6.72;3.67;;;;;;;;;;4990310;28;20069;-47
2021/06/01 05:43:52;;;;;;;5.63;3.70;;;;;;;;;;4994130;28;20074;-49
2021/06/01 05:46:19;;;;;;;5.47;3.10;;;;;;;;;;4992257;28;20054;-44
2021/06/01 05:48:46;;;;;;;5.53;3.72;;;;;;;;;;4985577;28;20054;-46
2021/06/01 05:51:12;;;;;;;5.38;3.67;;;;;;;;;;4988524;28;20077;-53
2021/06/01 05:53:40;;;;;;;5.78;3.83;;;;;;;;;;4983555;28;20047;-50
2021/06/01 05:56:07;;;;;;;7.30;4.55;;;;;;;;;;4981321;28;20058;-44
2021/06/01 05:58:34;;;;;;;5.03;3.42;;;;;;;;;;4980440;28;20050;-52
2021/06/01 06:01:01;;;;;;;5.55;3.70;;;;;;;;;;4991228;28;20054;-44
2021/06/01 06:03:28;;;;;;;4.35;3.30;;;;;;;;;;4991179;28;20085;-43
2021/06/01 06:05:55;;;;;;;5.40;3.65;;;;;;;;;;4991578;28;20057;-45
2021/06/01 06:08:21;;;;;;;6.35;3.67;;;;;;;;;;4986915;28;20051;-43
2021/06/01 06:10:49;;;;;;;6.68;3.60;;;;;;;;;;4985429;28;20057;-51
2021/06/01 06:13:16;;;;;;;9.05;3.90;;;;;;;;;;4995157;28;20046;-43
2021/06/01 06:15:44;;;;;;;7.25;3.05;;;;;;;;;;4990595;28;20050;-44
2021/06/01 06:18:11;;;;;;;7.10;3.70;;;;;;;;;;4987764;28;20085;-46
2021/06/01 06:20:37;;;;;;;5.88;3.33;;;;;;;;;;4992421;28;20112;-45
2021/06/01 06:23:04;;;;;;;6.30;3.58;;;;;;;;;;4994630;28;21047;-45
2021/06/01 06:25:31;;;;;;;5.70;3.78;;;;;;;;;;4991018;28;20082;-45
2021/06/01 06:27:58;;;;;;;6.68;3.53;;;;;;;;;;4995170;28;20050;-42
2021/06/01 06:30:25;;;;;;;4.85;3.70;;;;;;;;;;4988063;28;20439;-46
2021/06/01 06:32:51;;;;;;;6.18;3.80;;;;;;;;;;4994517;28;20055;-46
2021/06/01 06:35:18;;;;;;;6.20;3.22;;;;;;;;;;4994835;28;20054;-41
2021/06/01 06:37:46;;;;;;;5.70;3.45;;;;;;;;;;4992806;28;20077;-42
2021/06/01 06:40:13;;;;;;;5.32;3.42;;;;;;;;;;4994142;28;20149;-45
2021/06/01 06:42:40;;;;;;;8.43;3.53;;;;;;;;;;4994257;28;20069;-45
2021/06/01 06:45:08;;;;;;;5.35;3.47;;;;;;;;;;4994058;28;20195;-49
2021/06/01 06:50:16;;;;;;;6.15;3.40;;;;;;;;;;4990360;28;20046;-43
2021/06/01 06:52:43;;;;;;;12.15;4.20;;;;;;;;;;4990992;28;20058;-49
2021/06/01 06:55:11;;;;;;;6.15;3.72;;;;;;;;;;4993139;28;20470;-48
2021/06/01 06:57:39;;;;;;;5.55;3.40;;;;;;;;;;4994087;28;20112;-45
2021/06/01 07:00:07;;;;;;;6.43;3.70;;;;;;;;;;4986767;28;20054;-44
2021/06/01 07:02:36;;;;;;;6.93;4.30;;;;;;;;;;4995058;28;20049;-46
2021/06/01 07:05:03;;;;;;;5.78;3.30;;;;;;;;;;4995067;28;20522;-48
2021/06/01 07:07:30;;;;;;;5.07;3.67;;;;;;;;;;4984269;28;20051;-43
2021/06/01 07:09:57;;;;;;;5.55;3.20;;;;;;;;;;4998035;28;20050;-42
2021/06/01 07:12:24;;;;;;;12.05;3.83;;;;;;;;;;4999607;28;20528;-42
2021/06/01 07:14:51;;;;;;;6.80;3.40;;;;;;;;;;4995034;28;20063;-45
2021/06/01 07:17:20;;;;;;;7.07;3.35;;;;;;;;;;4996803;28;20054;-46
2021/06/01 07:19:50;;;;;;;6.68;3.63;;;;;;;;;;4996597;28;20110;-46
2021/06/01 07:22:17;;;;;;;4.25;3.00;;;;;;;;;;4995870;28;20069;-47
2021/06/01 07:24:44;;;;;;;6.20;3.42;;;;;;;;;;4990617;28;20043;-48
2021/06/01 07:27:11;;;;;;;7.63;4.20;;;;;;;;;;4985987;28;20042;-47
2021/06/01 07:29:38;;;;;;;7.70;3.20;;;;;;;;;;4986330;28;20054;-50
2021/06/01 07:32:05;;;;;;;8.35;3.35;;;;;;;;;;4991243;28;20054;-45
2021/06/01 07:34:32;;;;;;;6.13;3.20;;;;;;;;;;4993696;28;20149;-44
2021/06/01 07:36:59;;;;;;;6.47;2.97;;;;;;;;;;4992148;28;20054;-47
2021/06/01 07:39:26;;;;;;;4.80;3.28;;;;;;;;;;4983506;28;20643;-43
2021/06/01 07:41:53;;;;;;;6.80;3.08;;;;;;;;;;4990142;28;20050;-45
2021/06/01 07:44:20;;;;;;;5.05;3.65;;;;;;;;;;4993846;28;20530;-47
2021/06/01 07:46:46;;;;;;;7.32;2.60;;;;;;;;;;4991822;28;20046;-44
2021/06/01 07:49:14;;;;;;;4.75;3.35;;;;;;;;;;4992386;28;20077;-45
2021/06/01 07:51:40;;;;;;;8.63;3.00;;;;;;;;;;4993056;28;20046;-44
2021/06/01 07:54:07;;;;;;;5.38;2.90;;;;;;;;;;4994389;28;20504;-47
2021/06/01 07:56:34;;;;;;;6.03;2.95;;;;;;;;;;4993498;28;20512;-42
2021/06/01 07:59:03;;;;;;;5.20;3.00;;;;;;;;;;4994056;28;20494;-45
2021/06/01 08:01:29;;;;;;;4.55;3.22;;;;;;;;;;4994928;28;20046;-45
2021/06/01 08:03:56;;;;;;;5.88;3.30;;;;;;;;;;4993144;28;20078;-47
2021/06/01 08:06:25;;;;;;;5.03;3.08;;;;;;;;;;4992523;28;20411;-44
2021/06/01 08:08:51;;;;;;;7.07;3.28;;;;;;;;;;4993716;28;20108;-43
2021/06/01 08:11:18;;;;;;;4.53;2.80;;;;;;;;;;4984771;28;20043;-43
2021/06/01 08:13:45;;;;;;;9.13;3.35;;;;;;;;;;4987491;28;20614;-50
2021/06/01 08:16:12;;;;;;;6.85;3.17;;;;;;;;;;4987798;28;20043;-45
2021/06/01 08:18:44;;;;;;;3.90;2.60;;;;;;;;;;4990434;28;20046;-50
2021/06/01 08:21:14;;;;;;;6.95;3.15;;;;;;;;;;4992947;28;20050;-47
2021/06/01 08:23:41;;;;;;;5.70;3.28;;;;;;;;;;4991244;28;20058;-43
2021/06/01 08:26:08;;;;;;;5.95;2.80;;;;;;;;;;4992918;28;20046;-44
2021/06/01 08:28:35;;;;;;;6.05;2.75;;;;;;;;;;4988973;28;20042;-43
2021/06/01 08:31:02;;;;;;;5.22;2.67;;;;;;;;;;4987473;28;20050;-43
2021/06/01 08:33:30;;;;;;;4.13;2.70;;;;;;;;;;4993386;28;20070;-42
2021/06/01 08:35:58;;;;;;;6.00;3.17;;;;;;;;;;4992739;28;20419;-42
2021/06/01 08:38:24;;;;;;;3.72;2.75;;;;;;;;;;4990675;28;20084;-46
2021/06/01 08:40:52;;;;;;;5.90;3.08;;;;;;;;;;4991499;28;20057;-43
2021/06/01 08:43:24;;;;;;;6.53;2.67;;;;;;;;;;4989127;28;20047;-48
2021/06/01 08:45:53;;;;;;;7.10;3.78;;;;;;;;;;4993344;28;20104;-46
2021/06/01 08:48:21;;;;;;;6.18;2.90;;;;;;;;;;4986868;28;20112;-45
2021/06/01 08:50:52;;;;;;;5.22;2.70;;;;;;;;;;4990647;28;20049;-44
2021/06/01 08:53:19;;;;;;;5.40;3.00;;;;;;;;;;4991010;28;20054;-44
2021/06/01 08:55:47;;;;;;;5.75;3.03;;;;;;;;;;4991787;28;20046;-47
2021/06/01 08:58:17;;;;;;;4.93;3.08;;;;;;;;;;4992318;28;20076;-48
2021/06/01 09:00:44;;;;;;;4.47;3.22;;;;;;;;;;4987680;28;20058;-47
2021/06/01 09:03:14;;;;;;;5.20;3.25;;;;;;;;;;4992160;28;20467;-47
2021/06/01 09:11:36;;;;;;;6.40;2.72;;;;;;;;;;4988082;28;20058;-47
2021/06/01 09:14:34;;;;;;;6.38;2.67;;;;;;;;;;4985574;28;20070;-46
2021/06/01 09:22:49;;;;;;;4.32;2.80;;;;;;;;;;4989757;28;20134;-47
2021/06/01 09:25:22;;;;;;;3.65;2.40;;;;;;;;;;4991537;28;20693;-46
2021/06/01 09:27:53;;;;;;;3.63;2.80;;;;;;;;;;4990892;28;20046;-48
2021/06/01 09:30:38;;;;;;;5.25;2.97;;;;;;;;;;4988067;28;20050;-43
2021/06/01 09:33:09;;;;;;;5.72;2.70;;;;;;;;;;4990992;28;20093;-43
2021/06/01 09:35:40;;;;;;;3.42;2.70;;;;;;;;;;4989883;28;20104;-43
2021/06/01 09:38:07;;;;;;;7.80;3.33;;;;;;;;;;4989402;28;20057;-47
2021/06/01 09:40:34;;;;;;;4.00;2.70;;;;;;;;;;4988355;28;20055;-46
2021/06/01 09:43:01;;;;;;;4.05;3.03;;;;;;;;;;4990090;28;20085;-45
2021/06/01 09:45:28;;;;;;;4.82;2.55;;;;;;;;;;4990984;28;20094;-47
2021/06/01 09:47:59;;;;;;;4.15;2.78;;;;;;;;;;4991856;28;20058;-46
2021/06/01 09:53:06;;;;;;;4.05;2.70;;;;;;;;;;4985443;28;20050;-46
2021/06/01 09:58:02;;;;;;;4.15;3.00;;;;;;;;;;4999005;28;20100;-51
2021/06/01 10:00:29;;;;;;;4.05;2.45;;;;;;;;;;4997584;28;20054;-53
2021/06/01 10:03:09;;;;;;;3.50;2.92;;;;;;;;;;4995869;28;20046;-47
2021/06/01 10:05:37;;;;;;;5.25;2.70;;;;;;;;;;5000501;28;20097;-49
2021/06/01 10:08:14;;;;;;;8.15;2.90;;;;;;;;;;4988438;28;20050;-46
2021/06/01 10:10:48;;;;;;;3.15;2.40;;;;;;;;;;4987042;28;20435;-47
2021/06/01 10:13:15;;;;;;;4.07;2.63;;;;;;;;;;4989041;28;20045;-49
2021/06/01 10:15:42;;;;;;;5.47;2.80;;;;;;;;;;4985337;28;20174;-49
2021/06/01 10:18:10;;;;;;;5.25;2.65;;;;;;;;;;5003681;28;20547;-45
2021/06/01 10:20:38;;;;;;;3.63;2.50;;;;;;;;;;4990758;28;20113;-49
2021/06/01 10:23:06;;;;;;;5.20;2.50;;;;;;;;;;4990360;28;20054;-49
2021/06/01 10:25:33;;;;;;;4.95;2.60;;;;;;;;;;4992940;28;20088;-54
2021/06/01 10:28:03;;;;;;;2.60;2.17;;;;;;;;;;4993504;28;20053;-47
2021/06/01 10:30:30;;;;;;;3.90;2.45;;;;;;;;;;4994586;28;20105;-53
2021/06/01 10:33:02;;;;;;;3.88;2.42;;;;;;;;;;4989740;28;20096;-50
2021/06/01 10:35:31;;;;;;;4.35;2.88;;;;;;;;;;5008682;28;20093;-53
2021/06/01 10:44:22;;;;;;;6.50;2.80;;;;;;;;;;4985896;28;21468;-47
2021/06/01 10:52:09;;;;;;;4.55;2.88;;;;;;;;;;4989355;28;20459;-46
2021/06/01 10:54:49;;;;;;;5.53;2.30;;;;;;;;;;4989002;28;20145;-42
2021/06/01 10:57:17;;;;;;;3.78;2.72;;;;;;;;;;4983105;28;20093;-49
2021/06/01 11:01:50;;;;;;;7.50;2.70;;;;;;;;;;4988480;28;20532;-54
2021/06/01 11:02:37;;;;;;;4.85;2.42;;;;;;;;;;4988316;28;20073;-50
2021/06/01 11:05:13;;;;;;;7.00;2.58;;;;;;;;;;4990654;28;20538;-45
2021/06/01 11:07:57;;;;;;;4.82;2.58;;;;;;;;;;4991467;28;20047;-49
2021/06/01 11:10:42;;;;;;;4.15;2.50;;;;;;;;;;4987037;28;20053;-47
2021/06/01 11:13:10;;;;;;;4.05;2.75;;;;;;;;;;4984995;28;20046;-50
2021/06/01 11:15:37;;;;;;;6.72;2.50;;;;;;;;;;4994367;28;20117;-48
2021/06/01 11:18:22;;;;;;;5.57;2.53;;;;;;;;;;4991175;28;20065;-48
2021/06/01 11:21:05;;;;;;;3.78;2.50;;;;;;;;;;4993177;28;20047;-45
2021/06/01 11:23:52;;;;;;;5.75;2.55;;;;;;;;;;4991558;28;20046;-46
2021/06/01 11:35:36;;;;;;;11.32;3.22;;;;;;;;;;4994975;28;20061;-45
2021/06/01 11:43:10;;;;;;;5.03;2.55;;;;;;;;;;4993119;28;20050;-48
2021/06/01 11:45:45;;;;;;;4.43;2.38;;;;;;;;;;4990395;28;20536;-45
2021/06/01 11:51:20;;;;;;;5.13;2.60;;;;;;;;;;4993825;28;20161;-54
2021/06/01 11:54:08;;;;;;;6.03;2.30;;;;;;;;;;4986222;28;20105;-47
2021/06/01 11:56:53;;;;;;;6.28;2.80;;;;;;;;;;4982313;28;20511;-50
2021/06/01 12:20:54;;;;;;;3.92;2.65;;;;;;;;;;4991264;28;20137;-46
2021/06/01 12:23:26;;;;;;;4.07;2.80;;;;;;;;;;4992355;28;20051;-47
2021/06/01 12:26:04;;;;;;;5.25;2.67;;;;;;;;;;4991806;28;20058;-48
2021/06/01 12:31:22;;;;;;;9.73;2.60;;;;;;;;;;4992174;28;20039;-55
2021/06/01 12:33:56;;;;;;;3.87;2.30;;;;;;;;;;4998641;28;20054;-49
2021/06/01 12:37:09;;;;;;;5.40;2.75;;;;;;;;;;4994448;28;20311;-46
2021/06/01 12:42:36;;;;;;;8.32;2.65;;;;;;;;;;4997000;28;20058;-49
2021/06/01 12:45:04;;;;;;;3.78;2.78;;;;;;;;;;4993571;28;20413;-45
2021/06/01 13:20:15;;;;;;;4.40;2.28;;;;;;;;;;4993987;28;20042;-51
2021/06/01 13:23:10;;;;;;;3.92;2.30;;;;;;;;;;4994980;28;20061;-45
2021/06/01 13:39:16;;;;;;;3.28;1.90;;;;;;;;;;5004658;28;20046;-49
2021/06/01 13:47:18;;;;;;;3.13;1.90;;;;;;;;;;4986738;28;20054;-46
2021/06/01 13:49:48;;;;;;;4.50;2.30;;;;;;;;;;4993838;28;20049;-46
2021/06/01 13:58:28;;;;;;;3.05;1.70;;;;;;;;;;4995969;28;20054;-52
2021/06/01 14:00:51;;;;;;;3.22;1.60;;;;;;;;;;4994740;28;20050;-46
2021/06/01 14:31:39;;;;;;;5.28;1.70;;;;;;;;;;4990339;28;20479;-49
2021/06/01 15:54:08;;;;;;;3.47;1.65;;;;;;;;;;4988977;28;20073;-47
2021/06/01 17:04:55;;;;;;;2.55;1.50;;;;;;;;;;5030535;28;20057;-53
2021/06/01 17:08:21;;;;;;;2.65;1.60;;;;;;;;;;5025574;28;20053;-50
2021/06/01 17:13:07;;;;;;;2.65;1.45;;;;;;;;;;5032036;28;20514;-53
2021/06/01 17:15:35;;;;;;;5.95;1.63;;;;;;;;;;5021316;28;20045;-50
2021/06/01 17:36:24;;;;;;;3.25;1.50;;;;;;;;;;5017946;28;20064;-54
2021/06/01 17:38:51;;;;;;;3.63;1.55;;;;;;;;;;5029218;28;20526;-46
2021/06/01 17:41:23;;;;;;;6.60;1.58;;;;;;;;;;5020795;28;20057;-53
2021/06/01 17:43:52;;;;;;;4.32;1.70;;;;;;;;;;5030800;28;20164;-48
2021/06/01 17:46:19;;;;;;;4.18;1.90;;;;;;;;;;5019702;28;20053;-48
2021/06/01 17:48:53;;;;;;;3.92;2.03;;;;;;;;;;5021172;28;20095;-49
2021/06/01 17:51:19;;;;;;;;;;;;;;;;;;5022257;28;20200;-50
2021/06/01 17:53:48;;;;;;;1.92;1.40;;;;;;;;;;5027453;28;19963;-46
2021/06/01 17:56:16;;;;;;;2.05;1.40;;;;;;;;;;5023981;28;20080;-51
2021/06/01 17:58:43;;;;;;;1.95;1.42;;;;;;;;;;5026908;28;20422;-50
2021/06/01 18:01:10;;;;;;;2.63;1.70;;;;;;;;;;5025873;28;20127;-51
2021/06/01 18:03:44;;;;;;;2.95;1.50;;;;;;;;;;5026607;28;20045;-49
2021/06/01 18:06:12;;;;;;;5.65;1.90;;;;;;;;;;5021591;28;20507;-49
2021/06/01 18:09:10;;;;;;;2.90;1.85;;;;;;;;;;5021937;28;20131;-51
2021/06/01 18:11:51;;;;;;;2.45;1.70;;;;;;;;;;5021152;28;20131;-53
2021/06/01 19:02:02;;;;;;;3.10;2.00;;;;;;;;;;5022827;28;20458;-50
2021/06/01 19:50:50;;;;;;;5.25;2.65;;;;;;;;;;5043499;28;20044;-49
2021/06/01 19:53:19;;;;;;;3.83;2.55;;;;;;;;;;5042212;28;20045;-54
2021/06/01 19:55:46;;;;;;;9.38;2.20;;;;;;;;;;5024028;28;20099;-53
2021/06/01 19:58:15;;;;;;;4.20;1.90;;;;;;;;;;5028490;28;20060;-52
2021/06/01 20:00:42;;;;;;;4.43;2.00;;;;;;;;;;5025381;28;20080;-51
2021/06/01 20:03:09;;;;;;;3.75;1.92;;;;;;;;;;5032363;28;20336;-49
2021/06/01 20:05:37;;;;;;;3.97;2.00;;;;;;;;;;5029541;28;20136;-48
2021/06/01 20:08:06;;;;;;;3.42;2.30;;;;;;;;;;5015527;28;20060;-50
2021/06/01 20:10:33;;;;;;;4.13;2.40;;;;;;;;;;5030892;28;20041;-48
2021/06/01 20:13:00;;;;;;;7.18;2.40;;;;;;;;;;5030750;28;20053;-47
2021/06/01 20:15:30;;;;;;;3.22;2.15;;;;;;;;;;5029181;28;20045;-48
2021/06/01 20:17:58;;;;;;;5.00;2.90;;;;;;;;;;5027210;28;20568;-49
2021/06/01 20:20:27;;;;;;;3.92;2.30;;;;;;;;;;5030435;28;20434;-51
2021/06/01 20:23:00;;;;;;;3.78;2.30;;;;;;;;;;5032226;28;20092;-48
2021/06/01 20:25:46;;;;;;;4.97;2.55;;;;;;;;;;5028358;28;20454;-49
2021/06/01 20:28:16;;;;;;;4.57;2.47;;;;;;;;;;5018425;28;20073;-51
2021/06/01 20:30:47;;;;;;;7.97;2.20;;;;;;;;;;5036054;28;20136;-49
2021/06/01 20:33:16;;;;;;;6.85;2.30;;;;;;;;;;5030826;28;20133;-54
2021/06/01 20:35:46;;;;;;;6.40;3.08;;;;;;;;;;5026245;28;20418;-49
2021/06/01 20:38:14;;;;;;;4.22;2.70;;;;;;;;;;5026832;28;20069;-49
2021/06/01 20:40:41;;;;;;;4.20;2.88;;;;;;;;;;5019459;28;20065;-51
2021/06/01 20:43:08;;;;;;;4.40;2.40;;;;;;;;;;5032093;28;20115;-47
2021/06/01 20:45:37;;;;;;;5.25;2.30;;;;;;;;;;5020949;28;20080;-47
2021/06/01 20:48:05;;;;;;;3.75;2.15;;;;;;;;;;5026861;28;20057;-57
2021/06/01 20:50:33;;;;;;;2.88;2.03;;;;;;;;;;5031571;28;20453;-56
2021/06/01 20:53:00;;;;;;;4.70;2.45;;;;;;;;;;5028786;28;20079;-55
2021/06/01 20:55:28;;;;;;;3.60;2.13;;;;;;;;;;5019364;28;20069;-50
2021/06/01 20:58:03;;;;;;;3.78;2.35;;;;;;;;;;5025786;28;20472;-53
2021/06/01 21:00:31;;;;;;;6.18;2.33;;;;;;;;;;5019042;28;20080;-57
2021/06/01 21:02:59;;;;;;;3.47;2.17;;;;;;;;;;5031052;28;20524;-56
2021/06/01 21:05:29;;;;;;;4.15;2.45;;;;;;;;;;5029345;28;20049;-57
2021/06/01 21:07:56;;;;;;;5.85;2.63;;;;;;;;;;5029373;28;20084;-52
2021/06/01 21:10:24;;;;;;;5.22;2.85;;;;;;;;;;5030305;28;20046;-55
2021/06/01 21:12:51;;;;;;;6.50;2.50;;;;;;;;;;5029910;28;20042;-59
2021/06/01 21:15:19;;;;;;;4.03;2.40;;;;;;;;;;5031531;28;20040;-60
2021/06/01 21:17:46;;;;;;;5.00;2.95;;;;;;;;;;5026891;28;20063;-52
2021/06/01 21:20:14;;;;;;;5.63;2.70;;;;;;;;;;5030617;28;20057;-52
2021/06/01 21:22:42;;;;;;;5.15;2.60;;;;;;;;;;5024344;28;20090;-55
2021/06/01 21:25:14;;;;;;;5.95;2.72;;;;;;;;;;5025983;28;20069;-55
2021/06/01 21:27:41;;;;;;;4.20;2.70;;;;;;;;;;5034456;28;20049;-53
2021/06/01 21:30:08;;;;;;;4.53;2.60;;;;;;;;;;5014162;28;20530;-50
2021/06/01 21:32:45;;;;;;;4.75;2.58;;;;;;;;;;5011414;28;20419;-54
2021/06/01 21:35:14;;;;;;;5.88;2.92;;;;;;;;;;5015375;28;20486;-57
2021/06/01 21:37:40;;;;;;;5.38;3.28;;;;;;;;;;5029619;28;20057;-56
2021/06/01 21:40:08;;;;;;;4.82;2.70;;;;;;;;;;5021783;28;20080;-57
2021/06/01 21:42:35;;;;;;;7.22;2.95;;;;;;;;;;5028991;28;20530;-48
2021/06/01 21:45:04;;;;;;;4.38;2.83;;;;;;;;;;5031543;28;20122;-51
2021/06/01 21:47:36;;;;;;;3.78;2.75;;;;;;;;;;5024551;28;20545;-53
2021/06/01 21:50:05;;;;;;;4.95;2.47;;;;;;;;;;5034872;28;20167;-53
2021/06/01 21:52:32;;;;;;;4.57;2.65;;;;;;;;;;5029605;28;20041;-49
2021/06/01 21:54:59;;;;;;;7.80;3.33;;;;;;;;;;5029195;28;20080;-54
2021/06/01 21:57:26;;;;;;;5.32;3.00;;;;;;;;;;5026966;28;20508;-53
2021/06/01 21:59:54;;;;;;;5.78;2.80;;;;;;;;;;5029086;28;20568;-46
2021/06/01 22:02:21;;;;;;;4.28;2.90;;;;;;;;;;5025767;28;20091;-52
2021/06/01 22:04:49;;;;;;;6.00;3.00;;;;;;;;;;5031141;28;20053;-50
2021/06/01 22:07:17;;;;;;;4.18;2.90;;;;;;;;;;5017268;28;20077;-50
2021/06/01 22:09:44;;;;;;;6.43;3.55;;;;;;;;;;5021808;28;20503;-49
2021/06/01 22:12:11;;;;;;;5.82;3.70;;;;;;;;;;5026475;28;20104;-52